Time;durP1;ratioP1;P1;durP2;ratioP2;P2;SDS_P1;SDS_P2;PMS_P1;PMS_P2;Temp;Humidity;BMP_temperature;BMP_pressure;BME280_temperature;BME280_humidity;BME280_pressure;Samples;Min_cycle;Max_cycle;Signal;HPM_P1;HPM_P2
2022/03/05 00:00:08;;;;;;;;;;;;;;;;;;1022491;28;3914;-73
2022/03/05 00:00:43;;;;;;;;;;;;;;;;;;1022485;28;3938;-73
2022/03/05 00:01:14;;;;;;;;;;;;;;;;;;1022418;29;3005;-73
2022/03/05 00:01:44;;;;;;;;;;;;;;;;;;1023109;28;4160;-74
2022/03/05 00:02:14;;;;;;;;;;;;;;;;;;1023021;29;1983;-72
2022/03/05 00:02:45;;;;;;;;;;;;;;;;;;1022593;29;4014;-73
2022/03/05 00:03:15;;;;;;;;;;;;;;;;;;1023491;28;1315;-73
2022/03/05 00:03:45;;;;;;;;;;;;;;;;;;1023405;28;4224;-73
2022/03/05 00:04:16;;;;;;;;;;;;;;;;;;1023251;28;2039;-73
2022/03/05 00:04:47;;;;;;;;;;;;;;;;;;1023411;28;4225;-73
2022/03/05 00:05:18;;;;;;;;;;;;;;;;;;1022306;28;2406;-74
2022/03/05 00:05:48;;;;;;;;;;;;;;;;;;1022862;29;4138;-73
2022/03/05 00:06:18;;;;;;;;;;;;;;;;;;1022527;28;2198;-73
2022/03/05 00:06:49;;;;;;;;;;;;;;;;;;1022727;29;4025;-74
2022/03/05 00:07:20;;;;;;;;;;;;;;;;;;1023155;28;2819;-74
2022/03/05 00:07:50;;;;;;;;;;;;;;;;;;1023658;28;3845;-73
2022/03/05 00:08:21;;;;;;;;;;;;;;;;;;1022654;28;2718;-73
2022/03/05 00:08:52;;;;;;;;;;;;;;;;;;1023285;28;3989;-73
2022/03/05 00:09:22;;;;;;;;;;;;;;;;;;1023264;29;2000;-73
2022/03/05 00:09:52;;;;;;;;;;;;;;;;;;1023183;28;3949;-74
2022/03/05 00:10:23;;;;;;;;;;;;;;;;;;1023006;28;1594;-73
2022/03/05 00:10:54;;;;;;;;;;;;;;;;;;1023079;28;3833;-73
2022/03/05 00:11:24;;;;;;;;;;;;;;;;;;1023272;28;2246;-73
2022/03/05 00:11:54;;;;;;;;;;;;;;;;;;1022544;28;4119;-72
2022/03/05 00:12:24;;;;;;;;;;;;;;;;;;1022719;28;2187;-73
2022/03/05 00:12:55;;;;;;;;;;;;;;;;;;1022438;28;4000;-73
2022/03/05 00:13:26;;;;;;;;;;;;;;;;;;1023580;28;1317;-73
2022/03/05 00:13:56;;;;;;;;;;;;;;;;;;1023054;28;3969;-73
2022/03/05 00:14:26;;;;;;;;;;;;;;;;;;1023149;28;2767;-73
2022/03/05 00:14:56;;;;;;;;;;;;;;;;;;1022364;28;3833;-73
2022/03/05 00:15:28;;;;;;;;;;;;;;;;;;1021912;28;2782;-73
2022/03/05 00:15:58;;;;;;;;;;;;;;;;;;1018758;29;3985;-73
2022/03/05 00:16:29;;;;;;;;;;;;;;;;;;1014816;29;1669;-73
2022/03/05 00:16:59;;;;;;;;;;;;;;;;;;1015329;29;3790;-74
2022/03/05 00:17:29;;;;;;;;;;;;;;;;;;1015020;29;2795;-73
2022/03/05 00:17:59;;;;;;;;;;;;;;;;;;1019000;29;3863;-73
2022/03/05 00:18:30;;;;;;;;;;;;;;;;;;1022709;28;2962;-73
2022/03/05 00:19:00;;;;;;;;;;;;;;;;;;1022812;28;3841;-72
2022/03/05 00:19:31;;;;;;;;;;;;;;;;;;1022866;28;3152;-73
2022/03/05 00:20:01;;;;;;;;;;;;;;;;;;1022446;29;3842;-73
2022/03/05 00:20:31;;;;;;;;;;;;;;;;;;1022385;28;1683;-73
2022/03/05 00:21:03;;;;;;;;;;;;;;;;;;1021760;28;3984;-74
2022/03/05 00:21:33;;;;;;;;;;;;;;;;;;1022554;28;2015;-73
2022/03/05 00:22:03;;;;;;;;;;;;;;;;;;1023017;28;3961;-73
2022/03/05 00:22:34;;;;;;;;;;;;;;;;;;1019155;29;1406;-72
2022/03/05 00:23:04;;;;;;;;;;;;;;;;;;1018102;29;3998;-73
2022/03/05 00:23:35;;;;;;;;;;;;;;;;;;1019487;29;1964;-73
2022/03/05 00:24:05;;;;;;;;;;;;;;;;;;1018640;29;3798;-72
2022/03/05 00:24:36;;;;;;;;;;;;;;;;;;1023032;28;2441;-73
2022/03/05 00:25:06;;;;;;;;;;;;;;;;;;1021724;28;3992;-73
2022/03/05 00:25:37;;;;;;;;;;;;;;;;;;1022932;28;3208;-73
2022/03/05 00:26:07;;;;;;;;;;;;;;;;;;1021819;28;3936;-73
2022/03/05 00:26:37;;;;;;;;;;;;;;;;;;1022834;28;2963;-73
2022/03/05 00:27:08;;;;;;;;;;;;;;;;;;1022384;28;3807;-74
2022/03/05 00:27:39;;;;;;;;;;;;;;;;;;1022905;29;3016;-73
2022/03/05 00:28:09;;;;;;;;;;;;;;;;;;1022890;28;3829;-73
2022/03/05 00:28:39;;;;;;;;;;;;;;;;;;1018596;29;4011;-73
2022/03/05 00:29:10;;;;;;;;;;;;;;;;;;1018855;29;1723;-73
2022/03/05 00:29:40;;;;;;;;;;;;;;;;;;1018122;29;4102;-72
2022/03/05 00:30:10;;;;;;;;;;;;;;;;;;1018834;29;2996;-73
2022/03/05 00:30:41;;;;;;;;;;;;;;;;;;1022405;28;3946;-72
2022/03/05 00:31:11;;;;;;;;;;;;;;;;;;1023622;28;1153;-73
2022/03/05 00:31:42;;;;;;;;;;;;;;;;;;1023130;28;4005;-73
2022/03/05 00:32:12;;;;;;;;;;;;;;;;;;1023283;28;2118;-73
2022/03/05 00:32:43;;;;;;;;;;;;;;;;;;1023609;28;3839;-73
2022/03/05 00:33:14;;;;;;;;;;;;;;;;;;1021877;29;2859;-73
2022/03/05 00:33:44;;;;;;;;;;;;;;;;;;1023324;28;3893;-73
2022/03/05 00:34:14;;;;;;;;;;;;;;;;;;1022368;28;1604;-73
2022/03/05 00:34:44;;;;;;;;;;;;;;;;;;1022812;28;4825;-74
2022/03/05 00:35:15;;;;;;;;;;;;;;;;;;1022195;28;2937;-73
2022/03/05 00:35:45;;;;;;;;;;;;;;;;;;1022829;28;3873;-72
2022/03/05 00:36:15;;;;;;;;;;;;;;;;;;1019275;29;2487;-73
2022/03/05 00:36:52;;;;;;;;;;;;;;;;;;1018983;29;3930;-73
2022/03/05 00:37:22;;;;;;;;;;;;;;;;;;1017920;29;2851;-73
2022/03/05 00:37:52;;;;;;;;;;;;;;;;;;1015447;29;3864;-73
2022/03/05 00:38:23;;;;;;;;;;;;;;;;;;1019027;29;3063;-73
2022/03/05 00:38:53;;;;;;;;;;;;;;;;;;1018651;29;3828;-73
2022/03/05 00:39:23;;;;;;;;;;;;;;;;;;1018693;29;2868;-73
2022/03/05 00:39:53;;;;;;;;;;;;;;;;;;1021915;29;4007;-73
2022/03/05 00:40:23;;;;;;;;;;;;;;;;;;1023590;28;3153;-73
2022/03/05 00:40:54;;;;;;;;;;;;;;;;;;1022982;28;4127;-73
2022/03/05 00:41:24;;;;;;;;;;;;;;;;;;1023291;28;1833;-73
2022/03/05 00:41:54;;;;;;;;;;;;;;;;;;1022191;29;4044;-73
2022/03/05 00:42:25;;;;;;;;;;;;;;;;;;1022159;29;2397;-73
2022/03/05 00:42:55;;;;;;;;;;;;;;;;;;1021979;29;3972;-73
2022/03/05 00:43:25;;;;;;;;;;;;;;;;;;1022576;29;2911;-72
2022/03/05 00:43:55;;;;;;;;;;;;;;;;;;1022955;28;3956;-73
2022/03/05 00:44:28;;;;;;;;;;;;;;;;;;1021749;29;2641;-73
2022/03/05 00:44:58;;;;;;;;;;;;;;;;;;1020118;29;3903;-72
2022/03/05 00:45:28;;;;;;;;;;;;;;;;;;1018318;29;3004;-72
2022/03/05 00:45:59;;;;;;;;;;;;;;;;;;1018533;29;3800;-73
2022/03/05 00:46:29;;;;;;;;;;;;;;;;;;1019211;29;1627;-72
2022/03/05 00:46:59;;;;;;;;;;;;;;;;;;1021510;29;4017;-73
2022/03/05 00:47:30;;;;;;;;;;;;;;;;;;1023048;29;1574;-73
2022/03/05 00:48:00;;;;;;;;;;;;;;;;;;1022238;29;3816;-72
2022/03/05 00:48:30;;;;;;;;;;;;;;;;;;1022498;29;2890;-73
2022/03/05 00:49:00;;;;;;;;;;;;;;;;;;1018190;29;4040;-74
2022/03/05 00:49:32;;;;;;;;;;;;;;;;;;1018484;29;2679;-73
2022/03/05 00:50:03;;;;;;;;;;;;;;;;;;1017865;29;4008;-72
2022/03/05 00:50:34;;;;;;;;;;;;;;;;;;1018633;29;2584;-73
2022/03/05 00:51:04;;;;;;;;;;;;;;;;;;1022394;28;3787;-72
2022/03/05 00:51:34;;;;;;;;;;;;;;;;;;1023127;29;2870;-73
2022/03/05 00:52:05;;;;;;;;;;;;;;;;;;1018438;29;4022;-73
2022/03/05 00:52:36;;;;;;;;;;;;;;;;;;1018708;29;1769;-73
2022/03/05 00:53:06;;;;;;;;;;;;;;;;;;1018113;29;3852;-73
2022/03/05 00:53:36;;;;;;;;;;;;;;;;;;1014618;29;2894;-72
2022/03/05 00:54:07;;;;;;;;;;;;;;;;;;1017842;29;3943;-72
2022/03/05 00:54:37;;;;;;;;;;;;;;;;;;1018827;29;2901;-72
2022/03/05 00:55:08;;;;;;;;;;;;;;;;;;1018286;29;4006;-73
2022/03/05 00:55:38;;;;;;;;;;;;;;;;;;1022642;29;2797;-73
2022/03/05 00:56:21;;;;;;;;;;;;;;;;;;1022338;28;3930;-72
2022/03/05 00:56:59;;;;;;;;;;;;;;;;;;1018705;29;3927;-72
2022/03/05 00:57:29;;;;;;;;;;;;;;;;;;1018219;29;2785;-72
2022/03/05 00:57:59;;;;;;;;;;;;;;;;;;1018214;29;3894;-72
2022/03/05 00:58:30;;;;;;;;;;;;;;;;;;1018731;29;2660;-72
2022/03/05 00:59:00;;;;;;;;;;;;;;;;;;1018258;29;4069;-73
2022/03/05 00:59:31;;;;;;;;;;;;;;;;;;1018232;29;2822;-72
2022/03/05 01:00:03;;;;;;;;;;;;;;;;;;1017377;29;3932;-73
2022/03/05 01:00:33;;;;;;;;;;;;;;;;;;1014376;29;2369;-73
2022/03/05 01:01:04;;;;;;;;;;;;;;;;;;1014538;29;4024;-72
2022/03/05 01:01:34;;;;;;;;;;;;;;;;;;1014931;29;2223;-72
2022/03/05 01:02:04;;;;;;;;;;;;;;;;;;1014656;29;4011;-72
2022/03/05 01:02:34;;;;;;;;;;;;;;;;;;1018680;29;2471;-73
2022/03/05 01:03:05;;;;;;;;;;;;;;;;;;1018135;29;4044;-72
2022/03/05 01:03:35;;;;;;;;;;;;;;;;;;1018806;29;1923;-73
2022/03/05 01:04:05;;;;;;;;;;;;;;;;;;1018253;29;4001;-73
2022/03/05 01:04:35;;;;;;;;;;;;;;;;;;1018329;29;2757;-73
2022/03/05 01:05:06;;;;;;;;;;;;;;;;;;1018529;29;3894;-73
2022/03/05 01:05:43;;;;;;;;;;;;;;;;;;1018546;29;3905;-73
2022/03/05 01:06:13;;;;;;;;;;;;;;;;;;1018721;29;1615;-73
2022/03/05 01:06:43;;;;;;;;;;;;;;;;;;1018309;29;3903;-72
2022/03/05 01:07:14;;;;;;;;;;;;;;;;;;1019028;29;1341;-72
2022/03/05 01:07:44;;;;;;;;;;;;;;;;;;1019085;29;3907;-73
2022/03/05 01:08:14;;;;;;;;;;;;;;;;;;1018137;29;1657;-73
2022/03/05 01:08:44;;;;;;;;;;;;;;;;;;1018694;29;4147;-72
2022/03/05 01:09:15;;;;;;;;;;;;;;;;;;1017483;29;1948;-73
2022/03/05 01:09:45;;;;;;;;;;;;;;;;;;1016183;29;4143;-73
2022/03/05 01:10:15;;;;;;;;;;;;;;;;;;1016092;29;1613;-73
2022/03/05 01:10:45;;;;;;;;;;;;;;;;;;1016349;29;3813;-72
2022/03/05 01:11:16;;;;;;;;;;;;;;;;;;1018464;29;2843;-73
2022/03/05 01:11:46;;;;;;;;;;;;;;;;;;1017469;29;4035;-73
2022/03/05 01:12:16;;;;;;;;;;;;;;;;;;1018651;29;2323;-73
2022/03/05 01:12:46;;;;;;;;;;;;;;;;;;1017785;29;3842;-73
2022/03/05 01:13:17;;;;;;;;;;;;;;;;;;1018624;29;1633;-72
2022/03/05 01:13:47;;;;;;;;;;;;;;;;;;1018344;29;3830;-73
2022/03/05 01:14:18;;;;;;;;;;;;;;;;;;1019457;29;1630;-72
2022/03/05 01:14:48;;;;;;;;;;;;;;;;;;1018761;29;4009;-72
2022/03/05 01:15:19;;;;;;;;;;;;;;;;;;1018976;29;1493;-73
2022/03/05 01:15:49;;;;;;;;;;;;;;;;;;1018658;29;3920;-72
2022/03/05 01:16:19;;;;;;;;;;;;;;;;;;1019320;29;1218;-73
2022/03/05 01:16:49;;;;;;;;;;;;;;;;;;1014514;29;4150;-73
2022/03/05 01:17:20;;;;;;;;;;;;;;;;;;1014509;29;1980;-73
2022/03/05 01:17:50;;;;;;;;;;;;;;;;;;1014953;29;3921;-72
2022/03/05 01:18:20;;;;;;;;;;;;;;;;;;1014424;29;1374;-73
2022/03/05 01:18:50;;;;;;;;;;;;;;;;;;1017843;29;4068;-73
2022/03/05 01:19:21;;;;;;;;;;;;;;;;;;1018855;29;1734;-72
2022/03/05 01:19:51;;;;;;;;;;;;;;;;;;1018913;29;3929;-73
2022/03/05 01:20:21;;;;;;;;;;;;;;;;;;1018780;29;1621;-73
2022/03/05 01:20:52;;;;;;;;;;;;;;;;;;1019356;29;4017;-73
2022/03/05 01:21:22;;;;;;;;;;;;;;;;;;1018260;29;2515;-72
2022/03/05 01:21:52;;;;;;;;;;;;;;;;;;1018010;29;3979;-73
2022/03/05 01:22:22;;;;;;;;;;;;;;;;;;1018531;29;2917;-72
2022/03/05 01:22:53;;;;;;;;;;;;;;;;;;1016100;29;4018;-73
2022/03/05 01:23:23;;;;;;;;;;;;;;;;;;1016567;29;1595;-73
2022/03/05 01:23:53;;;;;;;;;;;;;;;;;;1014274;29;4007;-73
2022/03/05 01:24:24;;;;;;;;;;;;;;;;;;1014904;29;2015;-73
2022/03/05 01:24:54;;;;;;;;;;;;;;;;;;1018555;29;3900;-72
2022/03/05 01:25:24;;;;;;;;;;;;;;;;;;1018871;29;2411;-73
2022/03/05 01:26:01;;;;;;;;;;;;;;;;;;1018026;29;4011;-72
2022/03/05 01:26:31;;;;;;;;;;;;;;;;;;1018740;29;2435;-73
2022/03/05 01:27:02;;;;;;;;;;;;;;;;;;1018915;29;4006;-72
2022/03/05 01:27:32;;;;;;;;;;;;;;;;;;1018424;29;1620;-73
2022/03/05 01:28:02;;;;;;;;;;;;;;;;;;1018498;29;5077;-73
2022/03/05 01:28:33;;;;;;;;;;;;;;;;;;1018263;29;1581;-72
2022/03/05 01:29:03;;;;;;;;;;;;;;;;;;1019095;29;4062;-73
2022/03/05 01:29:33;;;;;;;;;;;;;;;;;;1017819;29;2750;-72
2022/03/05 01:30:04;;;;;;;;;;;;;;;;;;1018991;29;3818;-72
2022/03/05 01:30:34;;;;;;;;;;;;;;;;;;1018241;29;2777;-72
2022/03/05 01:31:05;;;;;;;;;;;;;;;;;;1018894;29;5233;-74
2022/03/05 01:31:35;;;;;;;;;;;;;;;;;;1013947;29;2777;-72
2022/03/05 01:32:06;;;;;;;;;;;;;;;;;;1012794;29;3911;-73
2022/03/05 01:32:36;;;;;;;;;;;;;;;;;;1013771;29;3155;-73
2022/03/05 01:33:07;;;;;;;;;;;;;;;;;;1013652;29;3772;-73
2022/03/05 01:33:37;;;;;;;;;;;;;;;;;;1018921;29;1215;-73
2022/03/05 01:34:07;;;;;;;;;;;;;;;;;;1017526;29;3935;-72
2022/03/05 01:34:37;;;;;;;;;;;;;;;;;;1018443;29;2782;-72
2022/03/05 01:35:08;;;;;;;;;;;;;;;;;;1017923;29;3760;-73
2022/03/05 01:35:38;;;;;;;;;;;;;;;;;;1019258;29;1203;-72
2022/03/05 01:36:09;;;;;;;;;;;;;;;;;;1018281;29;3932;-72
2022/03/05 01:36:39;;;;;;;;;;;;;;;;;;1014920;29;3836;-73
2022/03/05 01:37:09;;;;;;;;;;;;;;;;;;1014843;29;1788;-73
2022/03/05 01:37:40;;;;;;;;;;;;;;;;;;1014433;29;4258;-72
2022/03/05 01:38:10;;;;;;;;;;;;;;;;;;1014853;29;1610;-73
2022/03/05 01:38:40;;;;;;;;;;;;;;;;;;1018607;29;3992;-72
2022/03/05 01:39:11;;;;;;;;;;;;;;;;;;1015694;29;2226;-72
2022/03/05 01:39:41;;;;;;;;;;;;;;;;;;1015766;29;4444;-73
2022/03/05 01:40:11;;;;;;;;;;;;;;;;;;1014896;29;1609;-73
2022/03/05 01:40:42;;;;;;;;;;;;;;;;;;1015584;29;3915;-73
2022/03/05 01:41:12;;;;;;;;;;;;;;;;;;1019034;29;1467;-72
2022/03/05 01:41:48;;;;;;;;;;;;;;;;;;1018397;29;4012;-72
2022/03/05 01:42:22;;;;;;;;;;;;;;;;;;1018443;29;2784;-72
2022/03/05 01:42:53;;;;;;;;;;;;;;;;;;1018834;29;3815;-72
2022/03/05 01:43:23;;;;;;;;;;;;;;;;;;1018484;29;1688;-72
2022/03/05 01:43:53;;;;;;;;;;;;;;;;;;1018633;29;4201;-73
2022/03/05 01:44:24;;;;;;;;;;;;;;;;;;1018476;29;1404;-73
2022/03/05 01:44:54;;;;;;;;;;;;;;;;;;1018609;29;3962;-72
2022/03/05 01:45:25;;;;;;;;;;;;;;;;;;1018970;29;1684;-72
2022/03/05 01:45:55;;;;;;;;;;;;;;;;;;1017714;29;3995;-73
2022/03/05 01:46:29;;;;;;;;;;;;;;;;;;1018178;29;1906;-73
2022/03/05 01:47:01;;;;;;;;;;;;;;;;;;1020150;29;3871;-72
2022/03/05 01:47:31;;;;;;;;;;;;;;;;;;1018617;29;1697;-72
2022/03/05 01:48:02;;;;;;;;;;;;;;;;;;1018479;29;3968;-73
2022/03/05 01:48:32;;;;;;;;;;;;;;;;;;1014860;29;1614;-72
2022/03/05 01:49:04;;;;;;;;;;;;;;;;;;1014394;29;3972;-72
2022/03/05 01:49:34;;;;;;;;;;;;;;;;;;1014802;29;1559;-72
2022/03/05 01:50:04;;;;;;;;;;;;;;;;;;1014144;29;5294;-73
2022/03/05 01:50:35;;;;;;;;;;;;;;;;;;1015197;29;1514;-73
2022/03/05 01:51:05;;;;;;;;;;;;;;;;;;1013551;29;3972;-72
2022/03/05 01:51:35;;;;;;;;;;;;;;;;;;1014845;29;2105;-73
2022/03/05 01:52:06;;;;;;;;;;;;;;;;;;1014071;29;4020;-72
2022/03/05 01:52:36;;;;;;;;;;;;;;;;;;1018798;29;2915;-73
2022/03/05 01:53:06;;;;;;;;;;;;;;;;;;1018323;29;4032;-72
2022/03/05 01:53:36;;;;;;;;;;;;;;;;;;1019428;29;1582;-73
2022/03/05 01:54:07;;;;;;;;;;;;;;;;;;1017979;29;4044;-72
2022/03/05 01:54:38;;;;;;;;;;;;;;;;;;1018670;29;1658;-73
2022/03/05 01:55:11;;;;;;;;;;;;;;;;;;1014325;29;3883;-73
2022/03/05 01:55:41;;;;;;;;;;;;;;;;;;1014250;29;3865;-72
2022/03/05 01:56:12;;;;;;;;;;;;;;;;;;1014817;29;1917;-72
2022/03/05 01:56:55;;;;;;;;;;;;;;;;;;1018064;29;4070;-72
2022/03/05 01:57:33;;;;;;;;;;;;;;;;;;1022269;28;1355;-72
2022/03/05 01:58:03;;;;;;;;;;;;;;;;;;1022337;28;3859;-73
2022/03/05 01:58:34;;;;;;;;;;;;;;;;;;1022861;28;1616;-73
2022/03/05 01:59:04;;;;;;;;;;;;;;;;;;1022912;28;3942;-73
2022/03/05 01:59:35;;;;;;;;;;;;;;;;;;1023164;28;1627;-72
2022/03/05 02:00:06;;;;;;;;;;;;;;;;;;1021945;28;4046;-72
2022/03/05 02:00:37;;;;;;;;;;;;;;;;;;1022967;28;1214;-72
2022/03/05 02:01:07;;;;;;;;;;;;;;;;;;1021687;29;3852;-72
2022/03/05 02:01:37;;;;;;;;;;;;;;;;;;1020139;29;1591;-72
2022/03/05 02:02:07;;;;;;;;;;;;;;;;;;1018561;29;3805;-73
2022/03/05 02:02:52;;;;;;;;;;;;;;;;;;1019232;29;2984;-72
2022/03/05 02:03:22;;;;;;;;;;;;;;;;;;1020319;29;3760;-72
2022/03/05 02:03:53;;;;;;;;;;;;;;;;;;1022650;28;3880;-72
2022/03/05 02:04:24;;;;;;;;;;;;;;;;;;1022502;28;1690;-72
2022/03/05 02:04:54;;;;;;;;;;;;;;;;;;1022930;28;3973;-72
2022/03/05 02:05:24;;;;;;;;;;;;;;;;;;1022722;28;1612;-73
2022/03/05 02:05:55;;;;;;;;;;;;;;;;;;1022159;28;4062;-72
2022/03/05 02:06:25;;;;;;;;;;;;;;;;;;1023388;28;1692;-73
2022/03/05 02:06:55;;;;;;;;;;;;;;;;;;1023442;28;3994;-73
2022/03/05 02:07:26;;;;;;;;;;;;;;;;;;1022931;28;1646;-73
2022/03/05 02:07:57;;;;;;;;;;;;;;;;;;1022255;29;3906;-73
2022/03/05 02:08:27;;;;;;;;;;;;;;;;;;1022586;28;1335;-72
2022/03/05 02:08:57;;;;;;;;;;;;;;;;;;1022188;28;4025;-73
2022/03/05 02:09:27;;;;;;;;;;;;;;;;;;1018834;29;1603;-72
2022/03/05 02:09:58;;;;;;;;;;;;;;;;;;1017452;29;3977;-72
2022/03/05 02:10:28;;;;;;;;;;;;;;;;;;1018905;29;1505;-73
2022/03/05 02:10:58;;;;;;;;;;;;;;;;;;1017927;29;3995;-72
2022/03/05 02:11:28;;;;;;;;;;;;;;;;;;1022814;28;1559;-72
2022/03/05 02:11:59;;;;;;;;;;;;;;;;;;1022718;29;3977;-72
2022/03/05 02:12:30;;;;;;;;;;;;;;;;;;1022595;28;1392;-72
2022/03/05 02:13:00;;;;;;;;;;;;;;;;;;1022235;28;3959;-73
2022/03/05 02:13:31;;;;;;;;;;;;;;;;;;1022389;28;2703;-72
2022/03/05 02:14:01;;;;;;;;;;;;;;;;;;1021874;28;4105;-72
2022/03/05 02:14:31;;;;;;;;;;;;;;;;;;1022317;28;2734;-73
2022/03/05 02:15:02;;;;;;;;;;;;;;;;;;1022408;28;4067;-72
2022/03/05 02:15:33;;;;;;;;;;;;;;;;;;1021993;28;2781;-73
2022/03/05 02:16:04;;;;;;;;;;;;;;;;;;1021830;28;3809;-73
2022/03/05 02:16:34;;;;;;;;;;;;;;;;;;1022709;28;2978;-72
2022/03/05 02:17:04;;;;;;;;;;;;;;;;;;1022516;28;3794;-72
2022/03/05 02:17:36;;;;;;;;;;;;;;;;;;1022162;28;2825;-73
2022/03/05 02:18:06;;;;;;;;;;;;;;;;;;1020825;28;3771;-72
2022/03/05 02:18:36;;;;;;;;;;;;;;;;;;1023083;28;3154;-72
2022/03/05 02:19:06;;;;;;;;;;;;;;;;;;1021203;28;3817;-73
2022/03/05 02:19:37;;;;;;;;;;;;;;;;;;1023293;28;2712;-72
2022/03/05 02:20:07;;;;;;;;;;;;;;;;;;1022505;28;4004;-72
2022/03/05 02:20:38;;;;;;;;;;;;;;;;;;1022692;29;1736;-72
2022/03/05 02:21:09;;;;;;;;;;;;;;;;;;1021410;28;4268;-72
2022/03/05 02:21:39;;;;;;;;;;;;;;;;;;1022613;28;3995;-72
2022/03/05 02:22:10;;;;;;;;;;;;;;;;;;1021865;28;2964;-73
2022/03/05 02:22:43;;;;;;;;;;;;;;;;;;1022588;28;3863;-73
2022/03/05 02:23:13;;;;;;;;;;;;;;;;;;1021765;28;2647;-72
2022/03/05 02:23:44;;;;;;;;;;;;;;;;;;1022119;28;4034;-73
2022/03/05 02:24:31;;;;;;;;;;;;;;;;;;1018396;29;2848;-73
2022/03/05 02:25:08;;;;;;;;;;;;;;;;;;1017960;29;3886;-74
2022/03/05 02:25:48;;;;;;;;;;;;;;;;;;1018526;29;2661;-72
2022/03/05 02:26:19;;;;;;;;;;;;;;;;;;1022942;28;3835;-72
2022/03/05 02:26:49;;;;;;;;;;;;;;;;;;1021775;29;3881;-72
2022/03/05 02:27:21;;;;;;;;;;;;;;;;;;1022358;28;3133;-73
2022/03/05 02:27:52;;;;;;;;;;;;;;;;;;1022132;29;3838;-72
2022/03/05 02:28:23;;;;;;;;;;;;;;;;;;1022835;28;1683;-73
2022/03/05 02:28:54;;;;;;;;;;;;;;;;;;1022511;28;3823;-72
2022/03/05 02:29:24;;;;;;;;;;;;;;;;;;1022585;29;1630;-74
2022/03/05 02:29:55;;;;;;;;;;;;;;;;;;1022307;28;3956;-73
2022/03/05 02:30:25;;;;;;;;;;;;;;;;;;1017724;29;2389;-73
2022/03/05 02:30:56;;;;;;;;;;;;;;;;;;1018589;29;3809;-72
2022/03/05 02:31:26;;;;;;;;;;;;;;;;;;1017504;29;2855;-72
2022/03/05 02:31:56;;;;;;;;;;;;;;;;;;1018188;29;3883;-73
2022/03/05 02:32:27;;;;;;;;;;;;;;;;;;1022413;28;2343;-72
2022/03/05 02:32:57;;;;;;;;;;;;;;;;;;1018357;29;4052;-73
2022/03/05 02:33:27;;;;;;;;;;;;;;;;;;1019374;29;1350;-73
2022/03/05 02:34:00;;;;;;;;;;;;;;;;;;1018308;29;4072;-72
2022/03/05 02:34:30;;;;;;;;;;;;;;;;;;1019236;29;1816;-73
2022/03/05 02:35:01;;;;;;;;;;;;;;;;;;1022540;28;3892;-72
2022/03/05 02:35:31;;;;;;;;;;;;;;;;;;1022970;29;1819;-73
2022/03/05 02:36:03;;;;;;;;;;;;;;;;;;1021692;28;3991;-73
2022/03/05 02:36:34;;;;;;;;;;;;;;;;;;1022924;28;2808;-72
2022/03/05 02:37:04;;;;;;;;;;;;;;;;;;1022490;28;4128;-72
2022/03/05 02:37:34;;;;;;;;;;;;;;;;;;1023179;28;1355;-72
2022/03/05 02:38:05;;;;;;;;;;;;;;;;;;1021967;28;3763;-73
2022/03/05 02:38:35;;;;;;;;;;;;;;;;;;1021913;29;2919;-73
2022/03/05 02:39:05;;;;;;;;;;;;;;;;;;1022667;28;3836;-72
2022/03/05 02:39:36;;;;;;;;;;;;;;;;;;1022950;29;1570;-73
2022/03/05 02:40:06;;;;;;;;;;;;;;;;;;1022717;28;3770;-74
2022/03/05 02:40:36;;;;;;;;;;;;;;;;;;1022393;29;2384;-73
2022/03/05 02:41:07;;;;;;;;;;;;;;;;;;1017513;29;3874;-73
2022/03/05 02:41:37;;;;;;;;;;;;;;;;;;1018301;29;2965;-73
2022/03/05 02:42:07;;;;;;;;;;;;;;;;;;1018024;29;3834;-72
2022/03/05 02:42:38;;;;;;;;;;;;;;;;;;1014730;29;3846;-72
2022/03/05 02:43:08;;;;;;;;;;;;;;;;;;1017878;29;3762;-72
2022/03/05 02:43:39;;;;;;;;;;;;;;;;;;1018623;29;3064;-72
2022/03/05 02:44:09;;;;;;;;;;;;;;;;;;1017864;29;3641;-73
2022/03/05 02:44:40;;;;;;;;;;;;;;;;;;1021950;28;3967;-72
2022/03/05 02:45:10;;;;;;;;;;;;;;;;;;1022503;28;2965;-72
2022/03/05 02:45:41;;;;;;;;;;;;;;;;;;1022160;29;4016;-73
2022/03/05 02:46:11;;;;;;;;;;;;;;;;;;1021932;28;2491;-72
2022/03/05 02:46:42;;;;;;;;;;;;;;;;;;1022528;28;4065;-73
2022/03/05 02:47:12;;;;;;;;;;;;;;;;;;1022524;28;2735;-73
2022/03/05 02:47:42;;;;;;;;;;;;;;;;;;1021802;28;4103;-72
2022/03/05 02:48:14;;;;;;;;;;;;;;;;;;1022504;28;1776;-73
2022/03/05 02:48:44;;;;;;;;;;;;;;;;;;1022168;28;4020;-72
2022/03/05 02:49:15;;;;;;;;;;;;;;;;;;1022964;28;1199;-73
2022/03/05 02:49:45;;;;;;;;;;;;;;;;;;1021953;28;5430;-73
2022/03/05 02:50:15;;;;;;;;;;;;;;;;;;1022123;28;3098;-72
2022/03/05 02:50:47;;;;;;;;;;;;;;;;;;1021333;28;4034;-72
2022/03/05 02:51:17;;;;;;;;;;;;;;;;;;1021497;29;2810;-72
2022/03/05 02:51:47;;;;;;;;;;;;;;;;;;1022266;28;4015;-72
2022/03/05 02:52:18;;;;;;;;;;;;;;;;;;1022581;28;2045;-72
2022/03/05 02:52:48;;;;;;;;;;;;;;;;;;1022742;28;3827;-72
2022/03/05 02:53:18;;;;;;;;;;;;;;;;;;1021970;28;2826;-72
2022/03/05 02:53:48;;;;;;;;;;;;;;;;;;1021660;28;3823;-73
2022/03/05 02:54:19;;;;;;;;;;;;;;;;;;1017783;29;2699;-72
2022/03/05 02:54:49;;;;;;;;;;;;;;;;;;1018258;29;3981;-72
2022/03/05 02:55:20;;;;;;;;;;;;;;;;;;1017866;29;3079;-73
2022/03/05 02:55:50;;;;;;;;;;;;;;;;;;1018579;29;4035;-73
2022/03/05 02:56:20;;;;;;;;;;;;;;;;;;1022396;28;2794;-72
2022/03/05 02:56:58;;;;;;;;;;;;;;;;;;1022198;28;3823;-73
2022/03/05 02:57:28;;;;;;;;;;;;;;;;;;1021923;28;3027;-73
2022/03/05 02:57:58;;;;;;;;;;;;;;;;;;1022248;28;4051;-72
2022/03/05 02:58:28;;;;;;;;;;;;;;;;;;1022892;28;1430;-72
2022/03/05 02:58:59;;;;;;;;;;;;;;;;;;1021324;28;5165;-72
2022/03/05 02:59:29;;;;;;;;;;;;;;;;;;1021701;29;2727;-73
2022/03/05 02:59:59;;;;;;;;;;;;;;;;;;1021830;28;3917;-72
2022/03/05 03:00:30;;;;;;;;;;;;;;;;;;1021621;28;2748;-72
2022/03/05 03:01:00;;;;;;;;;;;;;;;;;;1021172;29;4498;-73
2022/03/05 03:01:30;;;;;;;;;;;;;;;;;;1022540;28;2852;-72
2022/03/05 03:02:01;;;;;;;;;;;;;;;;;;1022171;28;4016;-73
2022/03/05 03:02:31;;;;;;;;;;;;;;;;;;1022165;28;2645;-72
2022/03/05 03:03:02;;;;;;;;;;;;;;;;;;1021784;28;3985;-72
2022/03/05 03:03:32;;;;;;;;;;;;;;;;;;1022678;28;2156;-73
2022/03/05 03:04:02;;;;;;;;;;;;;;;;;;1021925;28;3839;-72
2022/03/05 03:04:33;;;;;;;;;;;;;;;;;;1021985;28;3156;-72
2022/03/05 03:05:03;;;;;;;;;;;;;;;;;;1022589;28;3967;-72
2022/03/05 03:05:33;;;;;;;;;;;;;;;;;;1022416;28;2889;-72
2022/03/05 03:06:05;;;;;;;;;;;;;;;;;;1018649;29;4013;-72
2022/03/05 03:06:36;;;;;;;;;;;;;;;;;;1014488;29;1490;-72
2022/03/05 03:07:06;;;;;;;;;;;;;;;;;;1014102;29;3964;-72
2022/03/05 03:07:36;;;;;;;;;;;;;;;;;;1014195;29;2969;-72
2022/03/05 03:08:06;;;;;;;;;;;;;;;;;;1018356;29;4057;-72
2022/03/05 03:08:37;;;;;;;;;;;;;;;;;;1021833;28;3061;-72
2022/03/05 03:09:07;;;;;;;;;;;;;;;;;;1021817;28;3822;-73
2022/03/05 03:09:38;;;;;;;;;;;;;;;;;;1022623;29;3283;-72
2022/03/05 03:10:08;;;;;;;;;;;;;;;;;;1021779;28;3829;-72
2022/03/05 03:10:39;;;;;;;;;;;;;;;;;;1022620;28;3829;-72
2022/03/05 03:11:09;;;;;;;;;;;;;;;;;;1022142;28;2914;-72
2022/03/05 03:11:39;;;;;;;;;;;;;;;;;;1022251;28;3974;-72
2022/03/05 03:12:10;;;;;;;;;;;;;;;;;;1021998;28;1405;-72
2022/03/05 03:12:40;;;;;;;;;;;;;;;;;;1021898;28;3959;-73
2022/03/05 03:13:10;;;;;;;;;;;;;;;;;;1021876;28;2113;-72
2022/03/05 03:13:40;;;;;;;;;;;;;;;;;;1023271;28;3924;-72
2022/03/05 03:14:11;;;;;;;;;;;;;;;;;;1023174;28;3146;-73
2022/03/05 03:14:41;;;;;;;;;;;;;;;;;;1022712;28;5119;-72
2022/03/05 03:15:12;;;;;;;;;;;;;;;;;;1022771;29;3071;-72
2022/03/05 03:15:42;;;;;;;;;;;;;;;;;;1022762;28;4000;-73
2022/03/05 03:16:12;;;;;;;;;;;;;;;;;;1023102;28;3153;-71
2022/03/05 03:16:43;;;;;;;;;;;;;;;;;;1023107;28;3855;-73
2022/03/05 03:17:13;;;;;;;;;;;;;;;;;;1023373;28;1673;-72
2022/03/05 03:17:45;;;;;;;;;;;;;;;;;;1022057;28;4116;-73
2022/03/05 03:18:18;;;;;;;;;;;;;;;;;;1022282;29;2760;-72
2022/03/05 03:18:48;;;;;;;;;;;;;;;;;;1021918;28;4495;-73
2022/03/05 03:19:19;;;;;;;;;;;;;;;;;;1023311;28;2767;-73
2022/03/05 03:19:49;;;;;;;;;;;;;;;;;;1022470;28;4076;-73
2022/03/05 03:20:24;;;;;;;;;;;;;;;;;;1022884;28;1574;-72
2022/03/05 03:20:54;;;;;;;;;;;;;;;;;;1022588;28;4054;-73
2022/03/05 03:21:24;;;;;;;;;;;;;;;;;;1023015;28;2993;-72
2022/03/05 03:21:55;;;;;;;;;;;;;;;;;;1023515;28;4002;-72
2022/03/05 03:22:25;;;;;;;;;;;;;;;;;;1022515;28;2472;-73
2022/03/05 03:22:55;;;;;;;;;;;;;;;;;;1023121;28;3995;-71
2022/03/05 03:23:26;;;;;;;;;;;;;;;;;;1023026;28;2693;-73
2022/03/05 03:23:56;;;;;;;;;;;;;;;;;;1023320;28;4044;-72
2022/03/05 03:24:26;;;;;;;;;;;;;;;;;;1022941;29;1640;-72
2022/03/05 03:25:03;;;;;;;;;;;;;;;;;;1022965;28;3788;-72
2022/03/05 03:25:33;;;;;;;;;;;;;;;;;;1023278;28;1697;-73
2022/03/05 03:26:04;;;;;;;;;;;;;;;;;;1023395;28;3985;-72
2022/03/05 03:26:34;;;;;;;;;;;;;;;;;;1023259;29;2897;-72
2022/03/05 03:27:04;;;;;;;;;;;;;;;;;;1022484;28;3769;-73
2022/03/05 03:27:35;;;;;;;;;;;;;;;;;;1019050;29;1568;-73
2022/03/05 03:28:05;;;;;;;;;;;;;;;;;;1018537;29;4096;-72
2022/03/05 03:28:36;;;;;;;;;;;;;;;;;;1019128;29;2882;-72
2022/03/05 03:29:06;;;;;;;;;;;;;;;;;;1015239;29;4119;-73
2022/03/05 03:29:43;;;;;;;;;;;;;;;;;;1018932;29;3857;-72
2022/03/05 03:30:14;;;;;;;;;;;;;;;;;;1018777;29;1923;-72
2022/03/05 03:30:44;;;;;;;;;;;;;;;;;;1018962;29;3837;-73
2022/03/05 03:31:14;;;;;;;;;;;;;;;;;;1022756;28;2795;-73
2022/03/05 03:31:44;;;;;;;;;;;;;;;;;;1022822;28;3847;-73
2022/03/05 03:32:14;;;;;;;;;;;;;;;;;;1022872;29;2819;-73
2022/03/05 03:32:45;;;;;;;;;;;;;;;;;;1023035;28;3837;-72
2022/03/05 03:33:16;;;;;;;;;;;;;;;;;;1023260;29;2273;-73
2022/03/05 03:33:46;;;;;;;;;;;;;;;;;;1022906;28;4321;-73